Huvudsida
METAR-TAF:

METAR-TAF

Flygplatser :

Mitiga International Airport

Tripoli, Libyen

latitud: 32-54N, longitud: 13-17E, höjd: 11 m

METAR: saknas

Tid: 23:00 (21:00 UTC)

Väderprognos

Denna rapport gjordes för 10 timmar och 0 minuter sedan, klockan 11:00 UTC
Prognos gäller från 21 kl. 12 UTC till 22 kl. 12 UTC
Vind 12 kt från ost/nordost
Sikt 10 km eller mer
Få moln på en höjd av 2500 ft
Blir
från 21 kl. 22 UTC till 21 kl. 24 UTC
Vind 2 kt varierande vindriktning
Sannolikhet 30%
från 22 kl. 03 UTC till 22 kl. 06 UTC
Sikt: 5000 m
fuktdis
Blir
från 22 kl. 10 UTC till 22 kl. 12 UTC
Vind 10 kt från nord/nordväst

TAF: HLLM 211100Z 2112/2212 06012KT 9999 FEW025 BECMG 2122/2124 VRB02KT PROB30 2203/2206 5000 BR BECMG 2210/2212 33010KT

Aktuella väderrapporter och prognoser från 4000 flygplatser (METAR- och TAF-rapporter).

De tillgängliga stationerna syns som gula och röda prickar på kartan.

För musen över prickarna för att se namnen på stationerna.

Klicka sedan för att få väderrapporter och prognoser.

För att ändra kartan: Klicka på de gröna knapparna med ett svart kors på för att zooma in; den gröna knappen med ett streck på för att zooma ut; eller på de gröna pilarna för angränsande kartor.


METAR-TAF: